createdAt,value
2022-09-03T00:00:44.598Z,13.53
2022-09-03T00:01:44.323Z,13.46
2022-09-03T00:02:44.278Z,13.41
2022-09-03T00:03:44.142Z,13.36
2022-09-03T00:04:44.070Z,13.41
2022-09-03T00:05:44.030Z,13.43
2022-09-03T00:06:43.994Z,13.50
2022-09-03T00:07:43.917Z,13.36
2022-09-03T00:08:43.875Z,13.46
2022-09-03T00:09:43.805Z,13.39
2022-09-03T00:10:43.735Z,13.38
2022-09-03T00:11:43.663Z,13.41
2022-09-03T00:12:43.580Z,13.35
2022-09-03T00:13:43.531Z,13.29
2022-09-03T00:14:44.146Z,13.31
2022-09-03T00:15:43.470Z,13.19
2022-09-03T00:16:43.344Z,13.24
2022-09-03T00:17:43.268Z,13.24
2022-09-03T00:18:43.230Z,13.14
2022-09-03T00:19:43.182Z,13.31
2022-09-03T00:20:43.099Z,13.29
2022-09-03T00:21:43.050Z,13.29
2022-09-03T00:22:42.977Z,13.28
2022-09-03T00:23:42.916Z,13.28
2022-09-03T00:24:42.847Z,13.21
2022-09-03T00:25:42.762Z,13.17
2022-09-03T00:26:42.708Z,13.22
2022-09-03T00:27:42.669Z,13.22
2022-09-03T00:28:42.692Z,13.12
2022-09-03T00:29:42.555Z,13.09
2022-09-03T00:30:42.464Z,13.09
2022-09-03T00:31:42.468Z,13.06
2022-09-03T00:32:42.375Z,13.07
2022-09-03T00:33:42.275Z,13.10
2022-09-03T00:34:42.293Z,13.06
2022-09-03T00:35:42.151Z,13.03
2022-09-03T00:36:42.162Z,13.03
2022-09-03T00:37:42.021Z,13.04
2022-09-03T00:38:41.965Z,13.03
2022-09-03T00:39:41.948Z,12.91
2022-09-03T00:40:41.845Z,12.87
2022-09-03T00:41:41.777Z,12.77
2022-09-03T00:42:41.730Z,12.81
2022-09-03T00:43:41.668Z,12.77
2022-09-03T00:44:41.604Z,12.88
2022-09-03T00:45:41.565Z,12.85
2022-09-03T00:46:41.548Z,12.88
2022-09-03T00:47:41.405Z,12.70
2022-09-03T00:48:41.334Z,12.69
2022-09-03T00:49:41.306Z,12.73
2022-09-03T00:50:41.216Z,12.62
2022-09-03T00:51:41.152Z,12.61
2022-09-03T00:52:41.109Z,12.58
2022-09-03T00:53:41.062Z,12.58
2022-09-03T00:54:41.914Z,12.52
2022-09-03T00:55:40.909Z,12.51
2022-09-03T00:56:40.837Z,12.36
2022-09-03T00:57:40.784Z,12.36
2022-09-03T00:58:40.730Z,12.36
2022-09-03T00:59:40.642Z,12.26
2022-09-03T01:00:40.589Z,12.37
2022-09-03T01:01:40.622Z,12.22
2022-09-03T01:02:40.561Z,12.30
2022-09-03T01:03:40.390Z,12.38
2022-09-03T01:04:40.356Z,12.36
2022-09-03T01:05:40.272Z,12.46
2022-09-03T01:06:40.232Z,12.40
2022-09-03T01:07:40.147Z,12.46
2022-09-03T01:08:40.111Z,12.58
2022-09-03T01:09:40.023Z,12.55
2022-09-03T01:10:39.964Z,12.55
2022-09-03T01:11:39.923Z,12.54
2022-09-03T01:12:39.842Z,12.48
2022-09-03T01:13:39.766Z,12.48
2022-09-03T01:14:39.746Z,12.43
2022-09-03T01:15:39.669Z,12.38
2022-09-03T01:16:39.607Z,12.44
2022-09-03T01:17:39.517Z,12.44
2022-09-03T01:18:39.465Z,12.46
2022-09-03T01:19:39.426Z,12.46
2022-09-03T01:20:39.390Z,12.41
2022-09-03T01:21:39.309Z,12.54
2022-09-03T01:22:39.222Z,12.55
2022-09-03T01:23:39.194Z,12.59
2022-09-03T01:24:39.076Z,12.74
2022-09-03T01:25:39.031Z,12.71
2022-09-03T01:26:38.970Z,12.87
2022-09-03T01:27:38.982Z,12.81
2022-09-03T01:28:38.852Z,12.85
2022-09-03T01:29:39.756Z,12.84
2022-09-03T01:30:38.742Z,12.88
2022-09-03T01:31:38.646Z,12.94
2022-09-03T01:32:38.593Z,12.95
2022-09-03T01:33:38.526Z,12.91
2022-09-03T01:34:38.452Z,12.91
2022-09-03T01:35:38.387Z,12.80
2022-09-03T01:36:38.325Z,12.88
2022-09-03T01:37:38.274Z,12.88
2022-09-03T01:38:38.236Z,12.76
2022-09-03T01:39:38.189Z,12.79
2022-09-03T01:40:38.095Z,12.88
2022-09-03T01:41:38.045Z,12.80
2022-09-03T01:42:37.955Z,12.88
2022-09-03T01:43:40.972Z,12.88
2022-09-03T01:44:37.871Z,12.84
2022-09-03T01:45:37.760Z,12.87
2022-09-03T01:46:37.760Z,12.77
2022-09-03T01:47:37.655Z,12.81
2022-09-03T01:48:37.575Z,12.81
2022-09-03T01:49:37.524Z,12.89
2022-09-03T01:50:37.472Z,12.81
2022-09-03T01:51:37.391Z,12.87
2022-09-03T01:52:37.367Z,12.84
2022-09-03T01:53:37.263Z,12.80
2022-09-03T01:54:37.220Z,12.79
2022-09-03T01:55:37.132Z,12.87
2022-09-03T01:56:37.066Z,12.80
2022-09-03T01:57:37.484Z,12.84
2022-09-03T01:58:36.957Z,12.84
2022-09-03T01:59:36.892Z,12.87
2022-09-03T02:00:36.838Z,12.81
2022-09-03T02:01:36.802Z,12.89
2022-09-03T02:02:36.773Z,12.81
2022-09-03T02:03:40.958Z,12.84
2022-09-03T02:04:36.571Z,12.91
2022-09-03T02:05:36.519Z,12.94
2022-09-03T02:06:36.443Z,12.84
2022-09-03T02:07:36.412Z,12.85
2022-09-03T02:08:36.344Z,12.88
2022-09-03T02:09:36.265Z,12.88
2022-09-03T02:10:36.211Z,12.91
2022-09-03T02:11:36.131Z,12.87
2022-09-03T02:12:36.058Z,12.91
2022-09-03T02:13:36.034Z,12.84
2022-09-03T02:14:35.950Z,13.03
2022-09-03T02:15:35.955Z,12.91
2022-09-03T02:16:35.816Z,12.87
2022-09-03T02:17:35.795Z,12.94
2022-09-03T02:18:35.688Z,12.88
2022-09-03T02:19:35.654Z,12.88
2022-09-03T02:20:35.557Z,12.92
2022-09-03T02:21:35.511Z,12.84
2022-09-03T02:22:35.438Z,12.87
2022-09-03T02:23:35.381Z,12.84
2022-09-03T02:24:35.316Z,12.70
2022-09-03T02:25:35.247Z,12.87
2022-09-03T02:26:35.194Z,12.89
2022-09-03T02:27:35.129Z,12.87
2022-09-03T02:28:35.061Z,12.84
2022-09-03T02:29:35.006Z,12.94
2022-09-03T02:30:34.967Z,12.85
2022-09-03T02:31:34.872Z,12.91
2022-09-03T02:32:34.801Z,12.85
2022-09-03T02:33:34.746Z,12.81
2022-09-03T02:34:34.686Z,12.87
2022-09-03T02:35:34.643Z,12.80
2022-09-03T02:36:34.568Z,12.73
2022-09-03T02:37:34.500Z,12.67
2022-09-03T02:38:34.503Z,12.76
2022-09-03T02:39:38.800Z,12.73
2022-09-03T02:40:34.382Z,12.63
2022-09-03T02:41:34.240Z,12.73
2022-09-03T02:42:34.180Z,12.73
2022-09-03T02:43:34.135Z,12.80
2022-09-03T02:44:34.076Z,12.80
2022-09-03T02:45:34.001Z,12.89
2022-09-03T02:46:34.038Z,12.84
2022-09-03T02:47:33.879Z,12.74
2022-09-03T02:48:33.821Z,12.71
2022-09-03T02:49:33.765Z,12.74
2022-09-03T02:50:33.691Z,12.80
2022-09-03T02:51:33.625Z,12.87
2022-09-03T02:52:33.567Z,12.79
2022-09-03T02:53:33.512Z,12.79
2022-09-03T02:54:33.455Z,12.84
2022-09-03T02:55:33.390Z,12.81
2022-09-03T02:56:33.318Z,12.80
2022-09-03T02:57:33.246Z,12.71
2022-09-03T02:58:33.175Z,12.81
2022-09-03T02:59:33.101Z,12.84
2022-09-03T03:00:33.054Z,12.79
2022-09-03T03:01:33.009Z,12.73
2022-09-03T03:02:33.110Z,12.79
2022-09-03T03:03:32.848Z,12.74
2022-09-03T03:04:32.793Z,12.73
2022-09-03T03:05:32.728Z,12.66
2022-09-03T03:06:32.664Z,12.67
2022-09-03T03:07:32.632Z,12.66
2022-09-03T03:08:32.538Z,12.77
2022-09-03T03:09:32.505Z,12.61
2022-09-03T03:10:32.421Z,12.62
2022-09-03T03:11:32.359Z,12.69
2022-09-03T03:12:32.281Z,12.61
2022-09-03T03:13:32.234Z,12.71
2022-09-03T03:14:32.181Z,12.61
2022-09-03T03:15:32.093Z,12.71
2022-09-03T03:16:32.054Z,12.59
2022-09-03T03:17:31.987Z,12.63
2022-09-03T03:18:31.906Z,12.59
2022-09-03T03:19:31.842Z,12.55
2022-09-03T03:20:31.777Z,12.58
2022-09-03T03:21:31.738Z,12.63
2022-09-03T03:22:31.669Z,12.69
2022-09-03T03:23:31.590Z,12.70
2022-09-03T03:24:31.549Z,12.71
2022-09-03T03:25:31.464Z,12.66
2022-09-03T03:26:31.401Z,12.70
2022-09-03T03:27:31.346Z,12.63
2022-09-03T03:28:31.354Z,12.73
2022-09-03T03:29:31.215Z,12.67
2022-09-03T03:30:31.155Z,12.74
2022-09-03T03:31:31.090Z,12.69
2022-09-03T03:32:31.016Z,12.59
2022-09-03T03:33:30.975Z,12.63
2022-09-03T03:34:30.893Z,12.55
2022-09-03T03:35:30.831Z,12.55
2022-09-03T03:36:30.763Z,12.58
2022-09-03T03:37:30.712Z,12.44
2022-09-03T03:38:30.639Z,12.48
2022-09-03T03:39:30.660Z,12.51
2022-09-03T03:40:30.509Z,12.54
2022-09-03T03:41:30.447Z,12.44
2022-09-03T03:42:30.397Z,12.38
2022-09-03T03:43:30.342Z,12.43
2022-09-03T03:44:30.277Z,12.33
2022-09-03T03:45:30.199Z,12.37
2022-09-03T03:46:30.171Z,12.41
2022-09-03T03:47:30.079Z,12.40
2022-09-03T03:48:30.015Z,12.29
2022-09-03T03:49:29.948Z,12.31
2022-09-03T03:50:29.891Z,12.38
2022-09-03T03:51:29.826Z,12.31
2022-09-03T03:52:29.761Z,12.40
2022-09-03T03:53:29.728Z,12.37
2022-09-03T03:54:29.641Z,12.34
2022-09-03T03:55:29.571Z,12.38
2022-09-03T03:56:29.536Z,12.44
2022-09-03T03:57:29.503Z,12.43
2022-09-03T03:58:29.413Z,12.49
2022-09-03T03:59:29.330Z,12.54
2022-09-03T04:00:29.266Z,12.49
2022-09-03T04:01:29.262Z,12.55
2022-09-03T04:02:29.217Z,12.55
2022-09-03T04:03:29.077Z,12.63
2022-09-03T04:04:28.994Z,12.67
2022-09-03T04:05:33.642Z,12.63
2022-09-03T04:06:28.914Z,12.59
2022-09-03T04:07:28.876Z,12.62
2022-09-03T04:08:28.839Z,12.63
2022-09-03T04:09:28.688Z,12.73
2022-09-03T04:10:28.690Z,12.76
2022-09-03T04:11:28.554Z,12.77
2022-09-03T04:12:28.519Z,12.85
2022-09-03T04:13:28.423Z,12.88
2022-09-03T04:14:28.364Z,12.87
2022-09-03T04:15:28.298Z,12.84
2022-09-03T04:16:28.286Z,12.88
2022-09-03T04:17:28.235Z,12.80
2022-09-03T04:18:28.130Z,12.85
2022-09-03T04:19:28.043Z,12.91
2022-09-03T04:20:28.064Z,12.77
2022-09-03T04:21:28.430Z,12.85
2022-09-03T04:22:27.857Z,12.87
2022-09-03T04:23:27.807Z,12.77
2022-09-03T04:24:27.759Z,12.81
2022-09-03T04:25:27.693Z,12.80
2022-09-03T04:26:27.612Z,12.81
2022-09-03T04:27:27.536Z,12.81
2022-09-03T04:28:27.714Z,12.70
2022-09-03T04:29:27.436Z,12.85
2022-09-03T04:30:27.431Z,12.76
2022-09-03T04:31:27.295Z,12.71
2022-09-03T04:32:27.228Z,12.74
2022-09-03T04:33:27.172Z,12.71
2022-09-03T04:34:27.099Z,12.85
2022-09-03T04:35:27.050Z,12.76
2022-09-03T04:36:27.026Z,12.80
2022-09-03T04:37:26.989Z,12.89
2022-09-03T04:38:26.910Z,12.85
2022-09-03T04:39:26.888Z,12.79
2022-09-03T04:40:26.724Z,12.77
2022-09-03T04:41:26.657Z,12.85
2022-09-03T04:42:26.611Z,12.79
2022-09-03T04:43:26.562Z,12.87
2022-09-03T04:44:26.481Z,12.89
2022-09-03T04:45:26.512Z,12.88
2022-09-03T04:46:26.393Z,12.89
2022-09-03T04:47:26.340Z,12.92
2022-09-03T04:48:26.282Z,12.94
2022-09-03T04:49:26.160Z,12.94
2022-09-03T04:50:26.106Z,13.03
2022-09-03T04:51:26.025Z,13.03
2022-09-03T04:52:25.961Z,13.03
2022-09-03T04:53:25.921Z,13.09
2022-09-03T04:54:28.217Z,13.19
2022-09-03T04:55:25.771Z,13.21
2022-09-03T04:56:25.746Z,13.29
2022-09-03T04:57:25.669Z,13.29
2022-09-03T04:58:25.589Z,13.44
2022-09-03T04:59:25.547Z,13.28
2022-09-03T05:00:25.476Z,13.41
2022-09-03T05:01:25.469Z,13.43
2022-09-03T05:02:25.406Z,13.53
2022-09-03T05:03:25.303Z,13.43
2022-09-03T05:04:25.204Z,13.51
2022-09-03T05:05:25.140Z,13.62
2022-09-03T05:06:25.099Z,13.65
2022-09-03T05:07:25.018Z,13.57
2022-09-03T05:08:25.113Z,13.62
2022-09-03T05:09:24.931Z,13.57
2022-09-03T05:10:24.877Z,13.69
2022-09-03T05:11:24.842Z,13.71
2022-09-03T05:12:24.807Z,13.71
2022-09-03T05:13:24.654Z,13.80
2022-09-03T05:14:24.620Z,13.71
2022-09-03T05:15:24.524Z,13.87
2022-09-03T05:16:24.530Z,13.81
2022-09-03T05:17:24.447Z,13.87
2022-09-03T05:18:24.469Z,13.88
2022-09-03T05:19:24.278Z,13.99
2022-09-03T05:20:24.197Z,13.99
2022-09-03T05:21:24.143Z,14.05
2022-09-03T05:22:24.089Z,13.99
2022-09-03T05:23:24.023Z,14.06
2022-09-03T05:24:24.037Z,14.16
2022-09-03T05:25:23.916Z,14.01
2022-09-03T05:26:23.819Z,14.12
2022-09-03T05:27:23.770Z,14.09
2022-09-03T05:28:23.767Z,14.16
2022-09-03T05:29:23.636Z,14.16
2022-09-03T05:30:23.572Z,14.09
2022-09-03T05:31:23.524Z,14.04
2022-09-03T05:32:23.444Z,14.05
2022-09-03T05:33:23.385Z,14.20
2022-09-03T05:34:23.345Z,14.09
2022-09-03T05:35:26.029Z,14.04
2022-09-03T05:36:23.196Z,14.08
2022-09-03T05:37:23.136Z,13.99
2022-09-03T05:38:23.183Z,13.96
2022-09-03T05:39:23.041Z,13.99
2022-09-03T05:40:22.947Z,14.08
2022-09-03T05:41:22.876Z,13.98
2022-09-03T05:42:22.822Z,14.09
2022-09-03T05:43:22.764Z,14.17
2022-09-03T05:44:22.690Z,14.17
2022-09-03T05:45:22.697Z,14.17
2022-09-03T05:46:22.569Z,14.04
2022-09-03T05:47:22.534Z,14.09
2022-09-03T05:48:22.457Z,14.20
2022-09-03T05:49:22.375Z,14.34
2022-09-03T05:50:22.337Z,14.27
2022-09-03T05:51:22.274Z,14.39
2022-09-03T05:52:22.210Z,14.45
2022-09-03T05:53:22.161Z,14.29
2022-09-03T05:54:22.072Z,14.39
2022-09-03T05:55:22.010Z,14.35
2022-09-03T05:56:21.938Z,14.45
2022-09-03T05:57:21.918Z,14.36
2022-09-03T05:58:21.828Z,14.41
2022-09-03T05:59:21.803Z,14.39
2022-09-03T06:00:21.727Z,14.45
2022-09-03T06:01:21.629Z,14.49
2022-09-03T06:02:21.653Z,14.48
2022-09-03T06:03:21.769Z,14.53
2022-09-03T06:04:21.511Z,14.49
2022-09-03T06:05:21.382Z,14.63
2022-09-03T06:06:21.320Z,14.71
2022-09-03T06:07:21.252Z,14.79
2022-09-03T06:08:21.193Z,14.75
2022-09-03T06:09:21.148Z,14.95
2022-09-03T06:10:25.610Z,15.05
2022-09-03T06:11:21.254Z,15.30
2022-09-03T06:12:20.952Z,15.48
2022-09-03T06:13:20.918Z,15.53
2022-09-03T06:14:20.881Z,15.81
2022-09-03T06:15:20.801Z,15.91
2022-09-03T06:16:27.193Z,16.69
2022-09-03T06:17:20.627Z,16.90
2022-09-03T06:18:20.584Z,16.81
2022-09-03T06:19:20.549Z,16.25
2022-09-03T06:20:20.494Z,16.22
2022-09-03T06:21:20.597Z,16.07
2022-09-03T06:22:20.323Z,17.05
2022-09-03T06:23:20.289Z,17.73
2022-09-03T06:24:20.317Z,18.68
2022-09-03T06:25:20.123Z,19.58
2022-09-03T06:26:20.088Z,19.31
2022-09-03T06:27:20.053Z,19.06
2022-09-03T06:28:23.229Z,19.39
2022-09-03T06:29:19.896Z,19.94
2022-09-03T06:30:19.821Z,19.94
2022-09-03T06:31:19.800Z,20.35
2022-09-03T06:32:19.700Z,20.76
2022-09-03T06:33:19.656Z,21.49
2022-09-03T06:34:19.608Z,21.18
2022-09-03T06:35:19.517Z,20.85
2022-09-03T06:36:19.468Z,20.72
2022-09-03T06:37:19.392Z,20.60
2022-09-03T06:38:19.394Z,20.79
2022-09-03T06:39:19.388Z,20.88
2022-09-03T06:40:19.219Z,20.31
2022-09-03T06:41:19.166Z,20.22
2022-09-03T06:42:19.093Z,19.94
2022-09-03T06:43:19.060Z,20.16
2022-09-03T06:44:18.990Z,20.68
2022-09-03T06:45:18.920Z,20.87
2022-09-03T06:46:18.861Z,21.33
2022-09-03T06:47:18.807Z,21.56
2022-09-03T06:48:18.756Z,21.43
2022-09-03T06:49:18.683Z,21.43
2022-09-03T06:50:18.668Z,21.13
2022-09-03T06:51:18.554Z,21.28
2022-09-03T06:52:18.499Z,21.11
2022-09-03T06:53:18.437Z,21.24
2022-09-03T06:54:18.378Z,20.51
2022-09-03T06:55:18.319Z,19.01
2022-09-03T06:56:18.261Z,18.38
2022-09-03T06:57:18.218Z,17.77
2022-09-03T06:58:18.158Z,17.43
2022-09-03T06:59:18.097Z,17.33
2022-09-03T07:00:18.034Z,17.14
2022-09-03T07:01:18.140Z,17.22
2022-09-03T07:02:18.015Z,17.49
2022-09-03T07:03:17.851Z,17.33
2022-09-03T07:04:20.194Z,17.43
2022-09-03T07:05:17.729Z,17.22
2022-09-03T07:06:17.678Z,17.10
2022-09-03T07:07:17.646Z,17.25
2022-09-03T07:08:17.553Z,17.30
2022-09-03T07:09:17.487Z,17.46
2022-09-03T07:10:17.425Z,17.55
2022-09-03T07:11:17.388Z,17.54
2022-09-03T07:12:17.327Z,17.51
2022-09-03T07:13:17.251Z,17.14
2022-09-03T07:14:17.201Z,17.09
2022-09-03T07:15:17.138Z,17.07
2022-09-03T07:16:17.118Z,17.27
2022-09-03T07:17:17.015Z,17.25
2022-09-03T07:18:16.952Z,17.49
2022-09-03T07:19:16.900Z,17.83
2022-09-03T07:20:16.839Z,18.28
2022-09-03T07:21:16.766Z,18.66
2022-09-03T07:22:16.717Z,19.55
2022-09-03T07:23:16.657Z,20.82
2022-09-03T07:24:16.638Z,20.88
2022-09-03T07:25:16.532Z,20.94
2022-09-03T07:26:16.473Z,21.33
2022-09-03T07:27:16.410Z,20.68
2022-09-03T07:28:16.390Z,20.20
2022-09-03T07:29:16.323Z,20.16
2022-09-03T07:30:16.228Z,20.20
2022-09-03T07:31:16.183Z,20.04
2022-09-03T07:32:16.138Z,19.75
2022-09-03T07:33:16.056Z,19.40
2022-09-03T07:34:15.995Z,19.06
2022-09-03T07:35:16.806Z,19.07
2022-09-03T07:36:15.879Z,19.06
2022-09-03T07:37:15.814Z,19.25
2022-09-03T07:38:15.848Z,19.30
2022-09-03T07:39:15.715Z,19.28
2022-09-03T07:40:15.635Z,19.20
2022-09-03T07:41:17.632Z,19.17
2022-09-03T07:42:15.562Z,19.21
2022-09-03T07:43:15.517Z,19.62
2022-09-03T07:44:15.529Z,19.79
2022-09-03T07:45:15.392Z,20.12
2022-09-03T07:46:15.360Z,20.51
2022-09-03T07:47:15.218Z,20.44
2022-09-03T07:48:15.155Z,20.81
2022-09-03T07:49:15.106Z,21.03
2022-09-03T07:50:15.037Z,21.66
2022-09-03T07:51:15.023Z,21.67
2022-09-03T07:52:14.955Z,21.93
2022-09-03T07:53:14.864Z,22.48
2022-09-03T07:54:14.844Z,22.20
2022-09-03T07:55:14.774Z,21.90
2022-09-03T07:56:14.759Z,22.44
2022-09-03T07:57:14.646Z,23.32
2022-09-03T07:58:14.593Z,23.67
2022-09-03T07:59:14.507Z,22.79
2022-09-03T08:00:14.517Z,22.15
2022-09-03T08:01:14.520Z,21.53
2022-09-03T08:02:14.362Z,20.91
2022-09-03T08:03:14.297Z,20.51
2022-09-03T08:04:14.272Z,20.87
2022-09-03T08:05:14.160Z,21.12
2022-09-03T08:06:14.106Z,22.17
2022-09-03T08:07:14.280Z,23.31
2022-09-03T08:08:15.562Z,24.21
2022-09-03T08:09:14.127Z,24.68
2022-09-03T08:10:13.866Z,24.55
2022-09-03T08:11:13.826Z,24.16
2022-09-03T08:12:13.795Z,24.05
2022-09-03T08:13:13.760Z,23.04
2022-09-03T08:14:13.644Z,22.96
2022-09-03T08:15:13.596Z,23.90
2022-09-03T08:16:13.553Z,23.71
2022-09-03T08:17:13.481Z,23.35
2022-09-03T08:18:13.399Z,22.44
2022-09-03T08:19:13.627Z,22.24
2022-09-03T08:20:13.322Z,22.19
2022-09-03T08:21:13.237Z,22.41
2022-09-03T08:22:13.198Z,21.96
2022-09-03T08:23:13.116Z,21.53
2022-09-03T08:24:13.064Z,21.21
2022-09-03T08:25:13.798Z,20.51
2022-09-03T08:26:12.943Z,20.38
2022-09-03T08:27:12.990Z,19.43
2022-09-03T08:28:12.824Z,19.57
2022-09-03T08:29:12.768Z,19.97
2022-09-03T08:30:12.731Z,20.66
2022-09-03T08:31:12.695Z,20.61
2022-09-03T08:32:12.604Z,20.60
2022-09-03T08:33:12.538Z,20.46
2022-09-03T08:34:12.492Z,20.15
2022-09-03T08:35:12.439Z,20.63
2022-09-03T08:36:12.360Z,21.09
2022-09-03T08:37:12.345Z,21.08
2022-09-03T08:38:12.284Z,21.55
2022-09-03T08:39:12.315Z,21.19
2022-09-03T08:40:12.166Z,21.31
2022-09-03T08:41:12.118Z,21.48
2022-09-03T08:42:12.112Z,21.68
2022-09-03T08:43:11.982Z,21.21
2022-09-03T08:44:11.903Z,21.67
2022-09-03T08:45:11.917Z,22.01
2022-09-03T08:46:11.905Z,22.54
2022-09-03T08:47:11.858Z,22.97
2022-09-03T08:48:11.669Z,23.39
2022-09-03T08:49:11.663Z,24.09
2022-09-03T08:50:11.566Z,24.97
2022-09-03T08:51:11.507Z,25.38
2022-09-03T08:52:11.433Z,25.61
2022-09-03T08:53:11.385Z,25.66
2022-09-03T08:54:11.333Z,25.36
2022-09-03T08:55:11.267Z,24.37
2022-09-03T08:56:11.207Z,23.72
2022-09-03T08:57:11.214Z,24.06
2022-09-03T08:58:11.094Z,24.04
2022-09-03T08:59:11.079Z,24.66
2022-09-03T09:00:11.003Z,25.24
2022-09-03T09:01:10.949Z,25.82
2022-09-03T09:02:11.019Z,26.42
2022-09-03T09:03:10.842Z,26.86
2022-09-03T09:04:10.755Z,26.41
2022-09-03T09:05:14.298Z,25.19
2022-09-03T09:06:10.644Z,24.09
2022-09-03T09:07:10.596Z,24.80
2022-09-03T09:08:10.539Z,25.29
2022-09-03T09:09:10.479Z,25.69
2022-09-03T09:10:10.431Z,26.21
2022-09-03T09:11:10.404Z,26.01
2022-09-03T09:12:10.364Z,26.50
2022-09-03T09:13:10.262Z,26.28
2022-09-03T09:14:10.207Z,25.85
2022-09-03T09:15:10.155Z,25.60
2022-09-03T09:16:10.227Z,25.74
2022-09-03T09:17:10.038Z,26.34
2022-09-03T09:18:10.003Z,26.73
2022-09-03T09:19:09.959Z,27.13
2022-09-03T09:20:09.868Z,27.05
2022-09-03T09:21:09.820Z,26.42
2022-09-03T09:22:09.777Z,26.96
2022-09-03T09:23:09.721Z,26.46
2022-09-03T09:24:09.674Z,26.27
2022-09-03T09:25:09.654Z,25.69
2022-09-03T09:26:09.561Z,25.09
2022-09-03T09:27:14.056Z,24.93
2022-09-03T09:28:09.437Z,25.45
2022-09-03T09:29:10.088Z,25.94
2022-09-03T09:30:09.337Z,26.47
2022-09-03T09:31:09.332Z,27.15
2022-09-03T09:32:09.221Z,26.78
2022-09-03T09:33:09.187Z,27.25
2022-09-03T09:34:09.110Z,27.52
2022-09-03T09:35:09.074Z,27.58
2022-09-03T09:36:09.011Z,27.05
2022-09-03T09:37:08.986Z,25.17
2022-09-03T09:38:08.895Z,24.09
2022-09-03T09:39:08.877Z,24.09
2022-09-03T09:40:08.807Z,23.34
2022-09-03T09:41:08.753Z,23.41
2022-09-03T09:42:08.699Z,23.69
2022-09-03T09:43:08.682Z,24.14
2022-09-03T09:44:08.652Z,24.46
2022-09-03T09:45:08.541Z,24.64
2022-09-03T09:46:08.502Z,25.07
2022-09-03T09:47:08.413Z,25.54
2022-09-03T09:48:08.364Z,25.98
2022-09-03T09:49:08.307Z,26.75
2022-09-03T09:50:08.269Z,26.72
2022-09-03T09:51:08.199Z,26.96
2022-09-03T09:52:08.147Z,27.27
2022-09-03T09:53:08.081Z,26.32
2022-09-03T09:54:08.023Z,26.32
2022-09-03T09:55:07.974Z,26.13
2022-09-03T09:56:07.950Z,26.27
2022-09-03T09:57:07.891Z,25.31
2022-09-03T09:58:12.065Z,25.31
2022-09-03T09:59:07.818Z,25.81
2022-09-03T10:00:07.792Z,25.01
2022-09-03T10:01:07.689Z,23.11
2022-09-03T10:02:07.590Z,23.38
2022-09-03T10:03:07.625Z,23.93
2022-09-03T10:04:07.487Z,24.33
2022-09-03T10:05:07.434Z,24.34
2022-09-03T10:06:07.387Z,24.16
2022-09-03T10:07:07.334Z,24.09
2022-09-03T10:08:07.269Z,24.04
2022-09-03T10:09:07.214Z,25.01
2022-09-03T10:10:07.904Z,25.75
2022-09-03T10:11:07.101Z,26.32
2022-09-03T10:12:07.045Z,26.06
2022-09-03T10:13:07.011Z,25.27
2022-09-03T10:14:06.942Z,24.63
2022-09-03T10:15:06.888Z,25.01
2022-09-03T10:16:06.894Z,25.09
2022-09-03T10:17:06.780Z,25.27
2022-09-03T10:18:06.789Z,25.22
2022-09-03T10:19:06.660Z,25.46
2022-09-03T10:20:06.601Z,25.35
2022-09-03T10:21:06.571Z,23.15
2022-09-03T10:22:06.514Z,23.81
2022-09-03T10:23:07.463Z,24.48
2022-09-03T10:24:06.770Z,24.27
2022-09-03T10:25:06.370Z,23.90
2022-09-03T10:26:06.292Z,23.87
2022-09-03T10:27:06.223Z,24.06
2022-09-03T10:28:06.217Z,24.37
2022-09-03T10:29:06.126Z,24.48
2022-09-03T10:30:06.066Z,24.60
2022-09-03T10:31:06.045Z,25.04
2022-09-03T10:32:05.961Z,24.82
2022-09-03T10:33:05.952Z,24.79
2022-09-03T10:34:05.841Z,24.52
2022-09-03T10:35:05.802Z,24.52
2022-09-03T10:36:05.782Z,24.34
2022-09-03T10:37:05.676Z,24.98
2022-09-03T10:38:05.613Z,25.30
2022-09-03T10:39:05.576Z,25.75
2022-09-03T10:40:05.592Z,26.00
2022-09-03T10:41:05.465Z,26.20
2022-09-03T10:42:05.444Z,26.68
2022-09-03T10:43:05.359Z,27.01
2022-09-03T10:44:05.280Z,27.23
2022-09-03T10:45:05.236Z,27.03
2022-09-03T10:46:05.215Z,25.96
2022-09-03T10:47:05.119Z,25.82
2022-09-03T10:48:05.066Z,25.97
2022-09-03T10:49:05.021Z,25.98
2022-09-03T10:50:04.964Z,26.44
2022-09-03T10:51:04.918Z,26.35
2022-09-03T10:52:04.837Z,25.89
2022-09-03T10:53:04.811Z,25.94
2022-09-03T10:54:04.739Z,25.79
2022-09-03T10:55:04.685Z,25.20
2022-09-03T10:56:04.667Z,25.14
2022-09-03T10:57:04.566Z,24.74
2022-09-03T10:58:04.512Z,24.45
2022-09-03T10:59:04.455Z,24.11
2022-09-03T11:00:04.407Z,23.45
2022-09-03T11:01:04.384Z,23.15
2022-09-03T11:02:04.316Z,23.15
2022-09-03T11:03:04.342Z,23.44
2022-09-03T11:04:04.188Z,23.64
2022-09-03T11:05:04.141Z,24.16
2022-09-03T11:06:04.164Z,24.92
2022-09-03T11:07:04.014Z,24.29
2022-09-03T11:08:03.978Z,22.91
2022-09-03T11:09:06.588Z,22.66
2022-09-03T11:10:03.882Z,22.76
2022-09-03T11:11:03.859Z,22.42
2022-09-03T11:12:03.741Z,22.17
2022-09-03T11:13:03.715Z,22.39
2022-09-03T11:14:03.628Z,22.88
2022-09-03T11:15:03.573Z,23.67
2022-09-03T11:16:03.534Z,23.82
2022-09-03T11:17:03.452Z,23.39
2022-09-03T11:18:03.414Z,23.31
2022-09-03T11:19:03.342Z,23.03
2022-09-03T11:20:03.284Z,23.04
2022-09-03T11:21:03.240Z,23.04
2022-09-03T11:22:03.177Z,22.64
2022-09-03T11:23:03.131Z,22.86
2022-09-03T11:24:03.061Z,22.94
2022-09-03T11:25:02.996Z,22.96
2022-09-03T11:26:02.956Z,23.37
2022-09-03T11:27:02.892Z,23.64
2022-09-03T11:28:02.830Z,23.93
2022-09-03T11:29:02.770Z,24.12
2022-09-03T11:30:02.720Z,24.33
2022-09-03T11:31:02.748Z,24.18
2022-09-03T11:32:02.603Z,23.92
2022-09-03T11:33:02.542Z,23.64
2022-09-03T11:34:02.480Z,23.78
2022-09-03T11:35:02.437Z,23.87
2022-09-03T11:36:02.364Z,24.52
2022-09-03T11:37:02.332Z,25.12
2022-09-03T11:38:02.269Z,24.66
2022-09-03T11:39:02.196Z,23.90
2022-09-03T11:40:02.229Z,23.69
2022-09-03T11:41:02.090Z,23.12
2022-09-03T11:42:02.022Z,23.21
2022-09-03T11:43:01.963Z,22.82
2022-09-03T11:44:04.557Z,22.56
2022-09-03T11:45:01.849Z,22.44
2022-09-03T11:46:01.856Z,22.39
2022-09-03T11:47:01.758Z,22.48
2022-09-03T11:48:01.738Z,22.72
2022-09-03T11:49:01.627Z,22.96
2022-09-03T11:50:01.561Z,23.18
2022-09-03T11:51:01.505Z,23.12
2022-09-03T11:52:01.444Z,23.23
2022-09-03T11:53:01.395Z,23.38
2022-09-03T11:54:01.342Z,23.21
2022-09-03T11:55:01.270Z,23.21
2022-09-03T11:56:01.225Z,23.03
2022-09-03T11:57:01.216Z,22.78
2022-09-03T11:58:01.104Z,22.72
2022-09-03T11:59:01.045Z,22.75
2022-09-03T12:00:00.985Z,22.70
2022-09-03T12:01:00.921Z,22.79
2022-09-03T12:02:00.898Z,22.72
2022-09-03T12:03:00.864Z,22.86
2022-09-03T12:04:00.767Z,22.94
2022-09-03T12:05:00.750Z,22.93
2022-09-03T12:06:00.646Z,22.75
2022-09-03T12:07:00.603Z,22.66
2022-09-03T12:08:02.355Z,22.97
2022-09-03T12:09:01.463Z,23.03
2022-09-03T12:10:00.426Z,23.09
2022-09-03T12:11:00.349Z,23.15
2022-09-03T12:12:00.290Z,23.12
2022-09-03T12:13:00.234Z,22.89
2022-09-03T12:14:00.216Z,22.86
2022-09-03T12:15:00.134Z,22.85
2022-09-03T12:16:00.102Z,23.11
2022-09-03T12:17:00.016Z,22.93
2022-09-03T12:18:00.463Z,22.97
2022-09-03T12:18:59.887Z,22.75
2022-09-03T12:19:59.815Z,22.82
2022-09-03T12:20:59.824Z,22.75
2022-09-03T12:21:59.761Z,22.67
2022-09-03T12:22:59.647Z,22.82
2022-09-03T12:23:59.581Z,22.74
2022-09-03T12:24:59.552Z,22.75
2022-09-03T12:25:59.474Z,22.99
2022-09-03T12:26:59.471Z,23.14
2022-09-03T12:27:59.357Z,23.00
2022-09-03T12:28:59.331Z,22.89
2022-09-03T12:29:59.320Z,22.76
2022-09-03T12:30:59.199Z,22.72
2022-09-03T12:31:59.125Z,22.93
2022-09-03T12:32:59.055Z,23.09
2022-09-03T12:33:59.040Z,23.14
2022-09-03T12:34:58.979Z,23.22
2022-09-03T12:35:59.500Z,23.12
2022-09-03T12:36:58.829Z,23.03
2022-09-03T12:38:08.676Z,22.84
2022-09-03T12:39:11.447Z,22.88
2022-09-03T12:40:07.918Z,22.86
2022-09-03T12:41:28.281Z,22.84
2022-09-03T12:41:58.545Z,23.06
2022-09-03T12:43:37.145Z,23.29
2022-09-03T12:43:58.467Z,23.32
2022-09-03T12:44:58.353Z,23.23
2022-09-03T12:46:13.723Z,23.23
2022-09-03T12:47:58.234Z,23.15
2022-09-03T12:49:58.075Z,23.34
2022-09-03T12:50:58.164Z,23.29
2022-09-03T12:52:01.831Z,23.26
2022-09-03T12:52:57.889Z,23.12
2022-09-03T12:53:58.160Z,23.47